Time;durP1;ratioP1;P1;durP2;ratioP2;P2;SDS_P1;SDS_P2;PMS_P1;PMS_P2;Temp;Humidity;BMP_temperature;BMP_pressure;BME280_temperature;BME280_humidity;BME280_pressure;Samples;Min_cycle;Max_cycle;Signal;HPM_P1;HPM_P2
2024/01/23 00:00:54;;;;;;;14.63;3.10;;;7.80;1.00;;;;;;5070736;28;20178;-48
2024/01/23 00:03:21;;;;;;;26.47;3.60;;;7.80;1.00;;;;;;5070394;28;20182;-47
2024/01/23 00:05:47;;;;;;;20.77;4.00;;;7.80;1.00;;;;;;5069651;28;20181;-46
2024/01/23 00:08:13;;;;;;;20.13;4.20;;;7.80;1.00;;;;;;5070914;28;20475;-46
2024/01/23 00:10:38;;;;;;;20.37;3.73;;;7.80;1.00;;;;;;5069601;28;20182;-46
2024/01/23 00:13:04;;;;;;;23.10;3.37;;;7.80;1.00;;;;;;5070448;28;20526;-47
2024/01/23 00:15:30;;;;;;;33.10;3.50;;;7.80;1.00;;;;;;5070810;28;20518;-48
2024/01/23 00:17:55;;;;;;;20.27;3.67;;;7.80;1.00;;;;;;5070347;28;20247;-47
2024/01/23 00:20:21;;;;;;;14.97;3.10;;;7.80;1.00;;;;;;5069659;28;20676;-47
2024/01/23 00:22:46;;;;;;;19.50;3.30;;;7.70;1.00;;;;;;5070041;28;20677;-47
2024/01/23 00:25:12;;;;;;;18.80;3.60;;;7.70;1.00;;;;;;5070487;28;20178;-47
2024/01/23 00:27:37;;;;;;;21.07;3.57;;;7.70;1.00;;;;;;5069678;28;20222;-47
2024/01/23 00:30:04;;;;;;;21.37;4.33;;;7.70;1.00;;;;;;5070414;28;20224;-47
2024/01/23 00:32:30;;;;;;;25.77;3.93;;;7.70;1.00;;;;;;5070122;28;20182;-47
2024/01/23 00:34:57;;;;;;;16.67;3.17;;;7.80;1.00;;;;;;5069125;28;20420;-47
2024/01/23 00:37:23;;;;;;;21.13;3.80;;;7.70;1.00;;;;;;5069635;28;20428;-47
2024/01/23 00:39:50;;;;;;;25.50;3.87;;;7.70;1.00;;;;;;5068588;28;20413;-47
2024/01/23 00:42:16;;;;;;;21.63;3.50;;;7.70;1.00;;;;;;5071975;28;20182;-47
2024/01/23 00:44:42;;;;;;;21.57;4.07;;;7.70;1.00;;;;;;5070984;28;20805;-47
2024/01/23 00:47:07;;;;;;;20.10;3.63;;;7.70;1.00;;;;;;5068787;28;20309;-47
2024/01/23 00:49:33;;;;;;;18.70;3.43;;;7.70;1.00;;;;;;5071075;28;20178;-47
2024/01/23 00:51:58;;;;;;;19.63;3.70;;;7.70;1.00;;;;;;5074073;28;20178;-47
2024/01/23 00:54:24;;;;;;;17.93;2.90;;;7.70;1.00;;;;;;5073401;28;20677;-47
2024/01/23 00:56:49;;;;;;;17.97;2.90;;;7.60;1.00;;;;;;5074073;28;20668;-47
2024/01/23 00:59:15;;;;;;;15.50;3.30;;;7.60;1.00;;;;;;5074340;28;20642;-47
2024/01/23 01:01:40;;;;;;;17.93;3.03;;;7.40;1.00;;;;;;5073917;28;20633;-47
2024/01/23 01:04:06;;;;;;;12.70;3.00;;;7.00;1.00;;;;;;5072464;28;20231;-47
2024/01/23 01:06:32;;;;;;;7.87;2.00;;;6.60;1.00;;;;;;5072936;28;20582;-47
2024/01/23 01:08:58;;;;;;;8.60;1.83;;;6.40;1.00;;;;;;5074060;28;20214;-47
2024/01/23 01:11:24;;;;;;;9.57;1.87;;;6.30;1.00;;;;;;5073740;28;20265;-47
2024/01/23 01:13:49;;;;;;;11.30;2.73;;;6.10;1.00;;;;;;5072017;28;20507;-48
2024/01/23 01:16:15;;;;;;;13.03;2.63;;;6.00;1.50;;;;;;5073052;28;20178;-47
2024/01/23 01:18:40;;;;;;;13.33;2.33;;;5.90;1.00;;;;;;5074297;28;20182;-47
2024/01/23 01:21:09;;;;;;;10.37;2.23;;;5.90;1.00;;;;;;5073379;28;20174;-47
2024/01/23 01:23:35;;;;;;;15.37;2.33;;;5.80;14.30;;;;;;5072719;28;20568;-46
2024/01/23 01:26:01;;;;;;;15.17;2.43;;;5.80;25.60;;;;;;5072541;28;20416;-46
2024/01/23 01:28:27;;;;;;;11.80;2.10;;;5.80;18.90;;;;;;5072460;28;21283;-46
2024/01/23 01:30:53;;;;;;;11.30;2.10;;;5.90;16.80;;;;;;5073418;28;20944;-47
2024/01/23 01:33:39;;;;;;;19.57;2.80;;;6.00;7.70;;;;;;5074188;28;20419;-47
2024/01/23 01:36:05;;;;;;;7.73;2.30;;;6.00;10.10;;;;;;5067798;28;20198;-47
2024/01/23 01:38:31;;;;;;;15.10;3.13;;;6.10;17.30;;;;;;5071118;28;20452;-47
2024/01/23 01:40:58;;;;;;;12.27;2.70;;;6.10;29.50;;;;;;5070842;28;20885;-46
2024/01/23 01:43:26;;;;;;;15.27;3.80;;;6.20;31.40;;;;;;5071007;28;20225;-47
2024/01/23 01:46:12;;;;;;;14.30;3.30;;;6.20;34.30;;;;;;5070519;28;20421;-46
2024/01/23 01:48:38;;;;;;;19.40;3.50;;;6.30;39.20;;;;;;5068642;28;20468;-46
2024/01/23 01:51:05;;;;;;;14.93;2.50;;;6.20;61.70;;;;;;5070061;28;20421;-46
2024/01/23 01:53:31;;;;;;;16.50;2.63;;;6.30;79.60;;;;;;5070517;28;20930;-46
2024/01/23 01:55:57;;;;;;;24.27;3.67;;;6.30;92.20;;;;;;5070242;28;20424;-46
2024/01/23 01:58:24;;;;;;;16.43;3.50;;;6.40;86.10;;;;;;5069214;28;20429;-46
2024/01/23 02:00:52;;;;;;;13.27;2.90;;;6.40;71.10;;;;;;5070779;28;20417;-46
2024/01/23 02:03:18;;;;;;;18.83;3.10;;;6.40;59.20;;;;;;5069148;28;20416;-47
2024/01/23 02:05:43;;;;;;;17.33;3.40;;;6.40;62.80;;;;;;5070896;28;20454;-46
2024/01/23 02:08:10;;;;;;;18.60;3.37;;;6.40;53.20;;;;;;5072126;28;20234;-46
2024/01/23 02:10:35;;;;;;;14.70;2.33;;;6.40;53.70;;;;;;5071707;28;20212;-46
2024/01/23 02:13:01;;;;;;;22.20;2.70;;;6.40;58.30;;;;;;5072169;28;20416;-46
2024/01/23 02:15:26;;;;;;;25.70;3.87;;;6.30;68.70;;;;;;5072944;28;20656;-46
2024/01/23 02:17:52;;;;;;;13.17;2.40;;;6.30;67.20;;;;;;5070998;28;20240;-46
2024/01/23 02:20:18;;;;;;;13.37;2.97;;;6.30;62.20;;;;;;5070847;28;20229;-46
2024/01/23 02:22:43;;;;;;;20.83;3.27;;;6.30;76.80;;;;;;5073482;28;20269;-46
2024/01/23 02:25:09;;;;;;;16.40;2.77;;;6.40;47.90;;;;;;5072537;28;20251;-46
2024/01/23 02:27:34;;;;;;;16.57;2.57;;;6.30;50.40;;;;;;5070849;28;20244;-46
2024/01/23 02:30:00;;;;;;;20.13;3.20;;;6.40;24.60;;;;;;5071347;28;20193;-47
2024/01/23 02:32:25;;;;;;;24.17;3.20;;;6.30;36.50;;;;;;5072193;28;20182;-47
2024/01/23 02:34:51;;;;;;;20.87;2.80;;;6.30;39.10;;;;;;5072708;28;20265;-47
2024/01/23 02:37:16;;;;;;;15.50;2.57;;;6.30;33.00;;;;;;5072380;28;20207;-47
2024/01/23 02:39:42;;;;;;;14.07;2.93;;;6.30;46.70;;;;;;5069670;28;20182;-47
2024/01/23 02:42:09;;;;;;;14.77;3.23;;;6.30;41.00;;;;;;5072820;28;20186;-47
2024/01/23 02:44:34;;;;;;;21.00;3.17;;;6.30;36.60;;;;;;5072049;28;20182;-47
2024/01/23 02:47:00;;;;;;;23.80;3.83;;;6.30;20.00;;;;;;5072190;28;20408;-47
2024/01/23 02:49:25;;;;;;;19.27;3.10;;;6.40;11.20;;;;;;5071420;28;20178;-46
2024/01/23 02:51:52;;;;;;;14.90;3.03;;;6.30;12.20;;;;;;5068717;28;20273;-47
2024/01/23 02:54:18;;;;;;;13.73;3.00;;;6.30;12.70;;;;;;5071924;28;20517;-47
2024/01/23 02:56:44;;;;;;;18.03;3.30;;;6.30;9.60;;;;;;5072644;28;20527;-48
2024/01/23 02:59:10;;;;;;;17.77;3.30;;;6.30;7.70;;;;;;5071770;28;20665;-47
2024/01/23 03:01:35;;;;;;;18.43;3.50;;;6.30;7.90;;;;;;5070217;28;20424;-47
2024/01/23 03:04:01;;;;;;;13.17;2.97;;;6.30;9.30;;;;;;5071266;28;20232;-47
2024/01/23 03:06:26;;;;;;;15.83;4.07;;;6.30;12.00;;;;;;5085238;28;20206;-47
2024/01/23 03:08:52;;;;;;;22.53;4.33;;;6.30;10.90;;;;;;5071557;28;20206;-46
2024/01/23 03:11:17;;;;;;;17.67;2.80;;;6.30;6.20;;;;;;5071656;28;20205;-47
2024/01/23 03:13:43;;;;;;;16.50;3.13;;;6.30;6.80;;;;;;5069759;28;20178;-47
2024/01/23 03:16:09;;;;;;;17.43;2.90;;;6.30;7.90;;;;;;5071578;28;20182;-47
2024/01/23 03:18:34;;;;;;;13.10;2.90;;;6.30;9.90;;;;;;5070217;28;20194;-47
2024/01/23 03:21:00;;;;;;;18.00;4.00;;;6.30;4.90;;;;;;5070910;28;20182;-47
2024/01/23 03:23:25;;;;;;;22.60;3.90;;;6.30;9.60;;;;;;5070442;28;20182;-47
2024/01/23 03:25:51;;;;;;;14.27;4.07;;;6.30;1.10;;;;;;5072291;28;20227;-47
2024/01/23 03:28:16;;;;;;;17.07;3.53;;;6.30;1.00;;;;;;5070711;28;20217;-47
2024/01/23 03:30:42;;;;;;;20.27;3.93;;;6.30;1.00;;;;;;5070414;28;20190;-47
2024/01/23 03:33:07;;;;;;;15.57;3.30;;;6.30;1.00;;;;;;5069477;28;20186;-47
2024/01/23 03:35:33;;;;;;;15.30;3.47;;;6.30;1.00;;;;;;5071063;28;20179;-47
2024/01/23 03:37:58;;;;;;;28.53;3.40;;;6.40;1.00;;;;;;5069949;28;20650;-47
2024/01/23 03:40:24;;;;;;;15.93;3.20;;;6.30;1.00;;;;;;5071384;28;20596;-47
2024/01/23 03:42:50;;;;;;;15.20;3.50;;;6.40;1.00;;;;;;5070554;28;20665;-47
2024/01/23 03:45:15;;;;;;;25.83;4.50;;;6.40;1.00;;;;;;5069788;28;20214;-47
2024/01/23 03:47:41;;;;;;;28.63;4.00;;;6.40;1.00;;;;;;5070522;28;20248;-47
2024/01/23 03:50:07;;;;;;;34.53;4.90;;;6.40;1.00;;;;;;5070797;28;20174;-47
2024/01/23 03:52:32;;;;;;;17.03;3.57;;;6.40;1.00;;;;;;5071248;28;20229;-47
2024/01/23 03:54:58;;;;;;;27.50;2.97;;;6.40;1.00;;;;;;5071117;28;20926;-48
2024/01/23 03:57:24;;;;;;;22.17;3.30;;;6.40;1.00;;;;;;5068094;28;20265;-47
2024/01/23 03:59:50;;;;;;;21.33;3.87;;;6.40;1.00;;;;;;5071676;28;20217;-48
2024/01/23 04:02:15;;;;;;;25.70;4.33;;;6.40;1.00;;;;;;5070266;28;20186;-47
2024/01/23 04:04:41;;;;;;;19.50;3.40;;;6.40;1.00;;;;;;5070010;28;20416;-48
2024/01/23 04:07:06;;;;;;;22.17;3.63;;;6.50;1.00;;;;;;5069903;28;20919;-48
2024/01/23 04:09:32;;;;;;;42.87;4.10;;;6.50;1.00;;;;;;5069742;28;20288;-47
2024/01/23 04:11:58;;;;;;;21.03;3.90;;;6.50;1.00;;;;;;5070354;28;20669;-47
2024/01/23 04:14:23;;;;;;;14.33;3.27;;;6.50;1.00;;;;;;5070807;28;20198;-46
2024/01/23 04:16:49;;;;;;;14.07;3.67;;;6.60;1.00;;;;;;5069260;28;20646;-47
2024/01/23 04:19:14;;;;;;;20.87;3.63;;;6.60;1.00;;;;;;5070569;28;20186;-47
2024/01/23 04:21:40;;;;;;;22.23;4.10;;;6.60;1.00;;;;;;5070335;28;20177;-46
2024/01/23 04:24:06;;;;;;;19.53;4.00;;;6.60;1.00;;;;;;5072059;28;21045;-47
2024/01/23 04:26:32;;;;;;;23.57;3.13;;;6.50;1.00;;;;;;5074419;28;20210;-46
2024/01/23 04:28:57;;;;;;;25.30;4.60;;;6.60;1.00;;;;;;5073848;28;20202;-47
2024/01/23 04:31:23;;;;;;;27.83;3.70;;;6.60;1.00;;;;;;5074113;28;20174;-46
2024/01/23 04:33:49;;;;;;;19.80;3.53;;;6.60;1.00;;;;;;5074883;28;20231;-47
2024/01/23 04:36:17;;;;;;;15.87;3.40;;;6.60;1.00;;;;;;5074214;28;20265;-47
2024/01/23 04:38:42;;;;;;;20.63;3.70;;;6.60;1.00;;;;;;5073640;28;20454;-46
2024/01/23 04:41:09;;;;;;;20.83;4.10;;;6.60;1.00;;;;;;5075170;28;20443;-46
2024/01/23 04:43:34;;;;;;;18.93;3.67;;;6.70;1.00;;;;;;5073919;28;20235;-47
2024/01/23 04:46:00;;;;;;;15.60;3.57;;;6.60;1.00;;;;;;5072816;28;20831;-46
2024/01/23 04:48:26;;;;;;;22.87;4.10;;;6.70;1.00;;;;;;5075244;28;20206;-47
2024/01/23 04:50:51;;;;;;;21.50;3.10;;;6.70;1.00;;;;;;5073567;28;20672;-46
2024/01/23 04:53:17;;;;;;;15.57;3.80;;;6.70;1.00;;;;;;5074275;28;20224;-48
2024/01/23 04:55:43;;;;;;;20.00;3.90;;;6.60;1.00;;;;;;5072635;28;20183;-46
2024/01/23 04:58:08;;;;;;;12.70;3.30;;;6.60;1.00;;;;;;5074055;28;20192;-46
2024/01/23 05:00:34;;;;;;;27.43;3.40;;;6.70;1.00;;;;;;5074344;28;20532;-46
2024/01/23 05:03:01;;;;;;;40.30;3.90;;;6.70;1.00;;;;;;5073998;28;20261;-46
2024/01/23 05:05:27;;;;;;;21.17;3.73;;;6.70;1.00;;;;;;5072249;28;20436;-46
2024/01/23 05:07:53;;;;;;;31.90;3.93;;;6.70;1.00;;;;;;5072778;28;20527;-46
2024/01/23 05:10:18;;;;;;;20.60;4.20;;;6.80;1.00;;;;;;5073572;28;20182;-47
2024/01/23 05:12:44;;;;;;;24.77;3.37;;;6.70;1.00;;;;;;5073716;28;20178;-46
2024/01/23 05:15:10;;;;;;;23.90;4.60;;;6.70;1.00;;;;;;5074212;28;20181;-47
2024/01/23 05:17:36;;;;;;;28.73;4.30;;;6.70;1.00;;;;;;5072611;28;20227;-46
2024/01/23 05:20:04;;;;;;;21.27;4.10;;;6.70;1.00;;;;;;5073097;28;20185;-46
2024/01/23 05:22:30;;;;;;;15.87;3.90;;;6.70;1.00;;;;;;5072537;28;20500;-46
2024/01/23 05:24:55;;;;;;;25.40;4.13;;;6.70;1.00;;;;;;5073202;28;20554;-46
2024/01/23 05:27:21;;;;;;;18.67;3.57;;;6.70;1.00;;;;;;5073514;28;20308;-46
2024/01/23 05:29:47;;;;;;;24.73;5.03;;;6.70;1.00;;;;;;5073031;28;20178;-46
2024/01/23 05:32:13;;;;;;;29.37;5.07;;;6.60;1.00;;;;;;5073418;28;20182;-46
2024/01/23 05:34:39;;;;;;;27.93;4.87;;;6.60;1.00;;;;;;5072208;28;20650;-46
2024/01/23 05:37:04;;;;;;;20.20;4.20;;;6.50;1.00;;;;;;5071757;28;20449;-46
2024/01/23 05:39:34;;;;;;;21.70;4.40;;;6.50;1.00;;;;;;5072669;28;20208;-46
2024/01/23 05:42:00;;;;;;;29.77;4.50;;;6.50;1.00;;;;;;5073381;28;20178;-47
2024/01/23 05:44:25;;;;;;;36.60;4.50;;;6.50;1.00;;;;;;5071469;28;20427;-46
2024/01/23 05:46:51;;;;;;;19.83;3.47;;;6.40;61.00;;;;;;5071930;28;20174;-46
2024/01/23 05:49:16;;;;;;;27.00;4.07;;;6.40;98.00;;;;;;5072587;28;20210;-46
2024/01/23 05:51:42;;;;;;;22.73;3.87;;;6.40;99.90;;;;;;5073095;28;20261;-46
2024/01/23 05:54:09;;;;;;;29.70;5.10;;;6.40;99.90;;;;;;5073525;28;20213;-46
2024/01/23 05:56:34;;;;;;;30.83;4.47;;;6.30;99.90;;;;;;5073634;28;20641;-46
2024/01/23 05:59:00;;;;;;;27.27;4.90;;;6.30;99.90;;;;;;5071162;28;20423;-46
2024/01/23 06:01:26;;;;;;;21.83;4.73;;;6.40;99.90;;;;;;5072329;28;20248;-46
2024/01/23 06:03:52;;;;;;;25.73;4.90;;;6.40;99.90;;;;;;5071996;28;20884;-46
2024/01/23 06:06:19;;;;;;;36.80;4.87;;;6.50;56.30;;;;;;5072585;28;20265;-47
2024/01/23 06:08:46;;;;;;;34.37;4.80;;;6.50;38.70;;;;;;5072297;28;20216;-46
2024/01/23 06:11:13;;;;;;;32.13;5.03;;;6.50;40.70;;;;;;5073092;28;20405;-46
2024/01/23 06:13:39;;;;;;;29.10;5.10;;;6.50;59.70;;;;;;5072256;28;20504;-46
2024/01/23 06:16:05;;;;;;;26.27;5.10;;;6.50;91.30;;;;;;5070996;28;20529;-46
2024/01/23 06:18:30;;;;;;;34.23;4.77;;;6.50;99.90;;;;;;5072600;28;20255;-46
2024/01/23 06:20:57;;;;;;;34.70;4.90;;;6.50;99.90;;;;;;5072153;28;20912;-46
2024/01/23 06:23:24;;;;;;;31.20;5.17;;;6.50;99.90;;;;;;5073790;28;20630;-48
2024/01/23 06:25:50;;;;;;;28.27;5.17;;;6.50;99.90;;;;;;5069638;28;20504;-47
2024/01/23 06:28:16;;;;;;;29.93;5.17;;;6.50;99.90;;;;;;5072388;28;20551;-47
2024/01/23 06:30:41;;;;;;;28.57;5.60;;;6.50;99.90;;;;;;5072387;28;20652;-47
2024/01/23 06:33:07;;;;;;;28.43;4.13;;;6.50;99.90;;;;;;5072527;28;20447;-47
2024/01/23 06:35:33;;;;;;;31.23;4.90;;;6.50;99.90;;;;;;5071704;28;20221;-47
2024/01/23 06:37:58;;;;;;;36.00;5.03;;;6.60;99.80;;;;;;5071487;28;20230;-46
2024/01/23 06:40:24;;;;;;;35.00;5.57;;;6.50;99.90;;;;;;5072002;28;20269;-47
2024/01/23 06:42:49;;;;;;;24.27;5.10;;;6.50;94.40;;;;;;5072117;28;20702;-47
2024/01/23 06:45:15;;;;;;;32.17;5.30;;;6.50;74.50;;;;;;5072044;28;20312;-47
2024/01/23 06:47:41;;;;;;;32.27;5.27;;;6.60;51.20;;;;;;5069535;28;20205;-47
2024/01/23 06:50:08;;;;;;;31.60;5.67;;;6.70;35.20;;;;;;5072775;28;20273;-47
2024/01/23 06:52:33;;;;;;;34.27;4.53;;;6.70;26.70;;;;;;5071535;28;20420;-47
2024/01/23 06:54:59;;;;;;;36.40;6.03;;;6.70;17.90;;;;;;5071464;28;20416;-46
2024/01/23 06:57:24;;;;;;;37.67;5.93;;;6.70;13.90;;;;;;5070033;28;20185;-47
2024/01/23 06:59:50;;;;;;;42.87;5.80;;;6.70;13.00;;;;;;5071623;28;20186;-47
2024/01/23 07:02:16;;;;;;;27.60;5.87;;;6.70;6.00;;;;;;5072276;28;20182;-47
2024/01/23 07:04:41;;;;;;;23.53;4.50;;;6.80;1.00;;;;;;5070423;28;20189;-47
2024/01/23 07:07:08;;;;;;;44.33;8.80;;;6.80;1.00;;;;;;5071666;28;20315;-48
2024/01/23 07:09:34;;;;;;;27.50;5.40;;;6.80;1.00;;;;;;5069675;28;20323;-48
2024/01/23 07:11:59;;;;;;;36.57;5.60;;;6.90;1.00;;;;;;5071246;28;20503;-47
2024/01/23 07:14:25;;;;;;;35.87;5.67;;;6.90;1.00;;;;;;5072133;28;20516;-47
2024/01/23 07:16:50;;;;;;;32.30;5.30;;;6.90;1.00;;;;;;5070790;28;20634;-47
2024/01/23 07:19:16;;;;;;;30.33;5.60;;;6.90;1.00;;;;;;5071610;28;20635;-47
2024/01/23 07:21:42;;;;;;;35.07;6.33;;;6.90;16.30;;;;;;5068741;28;20194;-46
2024/01/23 07:24:07;;;;;;;44.93;6.20;;;6.90;22.60;;;;;;5072248;28;20263;-46
2024/01/23 07:26:33;;;;;;;35.23;5.83;;;6.90;31.50;;;;;;5071405;28;20189;-47
2024/01/23 07:28:58;;;;;;;39.07;5.07;;;6.90;32.70;;;;;;5070693;28;20210;-46
2024/01/23 07:31:24;;;;;;;38.23;6.20;;;6.90;25.90;;;;;;5068964;28;20186;-47
2024/01/23 07:33:50;;;;;;;37.93;6.40;;;6.90;39.10;;;;;;5071239;28;20265;-47
2024/01/23 07:36:15;;;;;;;35.17;5.53;;;6.90;26.80;;;;;;5071344;28;20214;-47
2024/01/23 07:38:41;;;;;;;41.50;7.20;;;7.00;22.80;;;;;;5070328;28;20182;-46
2024/01/23 07:41:06;;;;;;;36.27;6.10;;;7.00;11.70;;;;;;5069823;28;20189;-48
2024/01/23 07:43:32;;;;;;;36.73;5.77;;;7.10;3.70;;;;;;5069628;28;20709;-46
2024/01/23 07:45:57;;;;;;;31.50;6.30;;;7.20;1.00;;;;;;5071159;28;20273;-46
2024/01/23 07:48:23;;;;;;;35.07;5.67;;;7.20;1.00;;;;;;5070626;28;20213;-47
2024/01/23 07:50:49;;;;;;;36.53;6.10;;;7.30;1.00;;;;;;5071272;28;20178;-46
2024/01/23 07:53:14;;;;;;;40.87;6.10;;;7.30;1.00;;;;;;5070215;28;20198;-47
2024/01/23 07:55:40;;;;;;;36.43;5.93;;;7.30;1.00;;;;;;5069818;28;20186;-47
2024/01/23 07:58:06;;;;;;;32.63;6.33;;;7.30;1.00;;;;;;5069787;28;20178;-47
2024/01/23 08:00:31;;;;;;;34.43;5.50;;;7.30;1.00;;;;;;5070784;28;20416;-48
2024/01/23 08:02:57;;;;;;;28.93;5.70;;;7.30;1.00;;;;;;5070139;28;20183;-47
2024/01/23 08:05:22;;;;;;;49.87;7.03;;;7.30;1.00;;;;;;5070282;28;20178;-48
2024/01/23 08:07:48;;;;;;;28.43;5.83;;;7.30;1.00;;;;;;5069466;28;20248;-48
2024/01/23 08:10:15;;;;;;;46.00;6.27;;;7.30;1.00;;;;;;5070588;28;20237;-47
2024/01/23 08:12:41;;;;;;;37.43;6.73;;;7.30;1.00;;;;;;5069824;28;20436;-47
2024/01/23 08:15:07;;;;;;;48.90;6.90;;;7.30;1.00;;;;;;5070101;28;20536;-47
2024/01/23 08:17:33;;;;;;;50.47;6.93;;;7.30;1.00;;;;;;5070374;28;20186;-47
2024/01/23 08:19:58;;;;;;;49.23;7.03;;;7.30;1.00;;;;;;5070422;28;20422;-47
2024/01/23 08:22:24;;;;;;;34.27;6.80;;;7.30;1.00;;;;;;5069470;28;20268;-47
2024/01/23 08:24:50;;;;;;;46.30;6.90;;;7.30;1.00;;;;;;5070192;28;20211;-48
2024/01/23 08:27:15;;;;;;;46.00;5.93;;;7.30;1.00;;;;;;5069643;28;20790;-48
2024/01/23 08:29:41;;;;;;;31.67;5.83;;;7.40;1.00;;;;;;5070457;28;20212;-47
2024/01/23 08:32:06;;;;;;;48.37;7.07;;;7.40;1.00;;;;;;5070459;28;20177;-48
2024/01/23 08:34:32;;;;;;;34.47;6.20;;;7.40;1.00;;;;;;5069630;28;20581;-48
2024/01/23 08:36:57;;;;;;;35.27;6.07;;;7.40;1.00;;;;;;5070533;28;20182;-48
2024/01/23 08:39:23;;;;;;;31.07;6.17;;;7.40;1.00;;;;;;5069491;28;20218;-48
2024/01/23 08:41:49;;;;;;;47.00;6.80;;;7.50;1.00;;;;;;5069304;28;20178;-48
2024/01/23 08:44:14;;;;;;;41.13;7.50;;;7.50;1.00;;;;;;5069856;28;20638;-48
2024/01/23 08:46:40;;;;;;;36.53;6.03;;;7.50;1.00;;;;;;5071151;28;20185;-47
2024/01/23 08:49:06;;;;;;;49.20;6.60;;;7.40;1.00;;;;;;5069156;28;20194;-48
2024/01/23 08:51:32;;;;;;;47.80;6.40;;;7.50;1.00;;;;;;5069633;28;20190;-47
2024/01/23 08:53:57;;;;;;;39.20;7.30;;;7.50;1.00;;;;;;5069458;28;20409;-48
2024/01/23 08:56:23;;;;;;;29.43;5.80;;;7.50;1.00;;;;;;5070358;28;20264;-47
2024/01/23 08:58:49;;;;;;;44.27;6.63;;;7.50;1.00;;;;;;5070509;28;20274;-48
2024/01/23 09:01:16;;;;;;;53.80;6.07;;;7.60;1.00;;;;;;5069681;28;20186;-48
2024/01/23 09:03:42;;;;;;;36.57;7.40;;;7.60;1.00;;;;;;5069844;28;20444;-48
2024/01/23 09:06:09;;;;;;;41.97;7.07;;;7.60;1.00;;;;;;5069212;28;20432;-48
2024/01/23 09:08:35;;;;;;;46.47;6.57;;;7.70;1.00;;;;;;5069065;28;20629;-49
2024/01/23 09:11:01;;;;;;;48.90;7.50;;;7.70;1.00;;;;;;5071007;28;20983;-46
2024/01/23 09:13:31;;;;;;;39.60;6.50;;;7.80;1.00;;;;;;5073246;28;20416;-46
2024/01/23 09:15:57;;;;;;;31.13;6.00;;;7.90;1.00;;;;;;5073413;28;20185;-47
2024/01/23 09:18:22;;;;;;;34.87;5.80;;;7.90;1.00;;;;;;5073193;28;20420;-47
2024/01/23 09:20:48;;;;;;;37.47;7.13;;;7.80;1.00;;;;;;5073651;28;20179;-46
2024/01/23 09:23:13;;;;;;;31.73;4.93;;;7.90;1.00;;;;;;5073007;28;20174;-48
2024/01/23 09:25:39;;;;;;;36.83;6.40;;;7.80;1.00;;;;;;5073520;28;20174;-48
2024/01/23 09:28:04;;;;;;;35.80;6.50;;;7.90;1.00;;;;;;5072287;28;20217;-47
2024/01/23 09:30:30;;;;;;;38.00;6.30;;;7.90;1.00;;;;;;5073748;28;20273;-47
2024/01/23 09:32:57;;;;;;;52.43;6.50;;;7.90;1.00;;;;;;5073200;28;20599;-46
2024/01/23 09:35:23;;;;;;;38.93;7.10;;;8.00;1.00;;;;;;5070749;28;20186;-45
2024/01/23 09:37:49;;;;;;;38.33;6.33;;;7.90;1.00;;;;;;5073653;28;20481;-47
2024/01/23 09:40:15;;;;;;;42.10;7.17;;;7.90;1.00;;;;;;5072767;28;20235;-46
2024/01/23 09:42:41;;;;;;;53.23;8.20;;;7.90;1.00;;;;;;5071024;28;20583;-47
2024/01/23 09:45:15;;;;;;;33.77;6.13;;;7.90;1.00;;;;;;5073159;28;20474;-47
2024/01/23 09:47:42;;;;;;;49.60;7.43;;;7.90;1.00;;;;;;5071819;28;20205;-46
2024/01/23 09:50:11;;;;;;;57.23;7.00;;;8.00;1.00;;;;;;5073093;28;20416;-47
2024/01/23 09:52:38;;;;;;;40.17;8.27;;;8.00;1.00;;;;;;5072686;28;21016;-46
2024/01/23 09:55:04;;;;;;;36.43;6.27;;;8.00;1.00;;;;;;5072000;28;20420;-47
2024/01/23 09:57:31;;;;;;;48.73;7.17;;;8.00;1.00;;;;;;5072864;28;20423;-47
2024/01/23 09:59:57;;;;;;;43.40;7.37;;;8.10;1.00;;;;;;5072552;28;20424;-47
2024/01/23 10:02:24;;;;;;;44.40;7.10;;;8.00;1.00;;;;;;5072236;28;20431;-47
2024/01/23 10:04:52;;;;;;;30.10;5.63;;;8.00;1.00;;;;;;5071295;28;20216;-47
2024/01/23 10:07:19;;;;;;;39.87;6.70;;;8.10;1.00;;;;;;5072224;28;20456;-47
2024/01/23 10:09:48;;;;;;;42.97;6.43;;;8.20;1.00;;;;;;5072779;28;20431;-46
2024/01/23 10:12:14;;;;;;;39.63;6.03;;;8.30;1.00;;;;;;5072361;28;20943;-46
2024/01/23 10:14:45;;;;;;;41.00;7.17;;;8.40;1.00;;;;;;5072003;28;20421;-47
2024/01/23 10:17:10;;;;;;;31.87;6.20;;;8.50;1.00;;;;;;5072212;28;20586;-47
2024/01/23 10:19:37;;;;;;;34.67;6.10;;;8.70;1.00;;;;;;5072237;28;20433;-47
2024/01/23 10:22:03;;;;;;;32.03;6.27;;;8.80;1.00;;;;;;5071246;28;20178;-46
2024/01/23 10:24:29;;;;;;;28.63;5.40;;;8.70;1.00;;;;;;5072652;28;20467;-46
2024/01/23 10:26:55;;;;;;;49.23;8.30;;;8.50;1.00;;;;;;5072087;28;20971;-47
2024/01/23 10:29:22;;;;;;;43.90;6.73;;;8.50;1.00;;;;;;5072648;28;20214;-47
2024/01/23 10:31:47;;;;;;;44.77;6.93;;;8.40;1.00;;;;;;5071584;28;20395;-46
2024/01/23 10:34:13;;;;;;;39.20;6.40;;;8.20;1.00;;;;;;5073132;28;20540;-46
2024/01/23 10:36:42;;;;;;;39.70;7.23;;;8.30;1.00;;;;;;5070602;28;20193;-47
2024/01/23 10:39:10;;;;;;;42.53;6.70;;;8.30;1.00;;;;;;5072396;28;20426;-47
2024/01/23 10:41:37;;;;;;;46.13;7.00;;;8.20;1.00;;;;;;5071828;28;20412;-47
2024/01/23 10:44:04;;;;;;;38.40;6.67;;;8.30;1.00;;;;;;5071112;28;20428;-47
2024/01/23 10:46:30;;;;;;;36.70;6.43;;;8.20;1.00;;;;;;5071179;28;20494;-47
2024/01/23 10:48:56;;;;;;;49.73;7.83;;;8.30;1.00;;;;;;5072552;28;20464;-47
2024/01/23 10:51:27;;;;;;;40.37;7.30;;;8.20;1.00;;;;;;5071472;28;20428;-47
2024/01/23 10:53:57;;;;;;;43.23;7.60;;;8.20;1.00;;;;;;5071867;28;20495;-47
2024/01/23 10:56:24;;;;;;;49.13;6.57;;;8.20;1.00;;;;;;5071318;28;20421;-48
2024/01/23 10:59:00;;;;;;;46.77;6.40;;;8.20;1.00;;;;;;5070498;28;20424;-47
2024/01/23 11:01:32;;;;;;;42.00;7.10;;;8.20;1.00;;;;;;5072990;28;20490;-46
2024/01/23 11:03:59;;;;;;;36.93;6.40;;;8.00;1.00;;;;;;5071144;28;20401;-47
2024/01/23 11:06:29;;;;;;;43.90;6.57;;;8.00;1.00;;;;;;5069898;28;20420;-47
2024/01/23 11:09:15;;;;;;;43.17;7.20;;;8.00;1.00;;;;;;5071356;28;20460;-46
2024/01/23 11:12:06;;;;;;;44.50;6.80;;;8.10;1.00;;;;;;5070628;28;20415;-46
2024/01/23 11:14:57;;;;;;;40.00;6.73;;;8.10;1.00;;;;;;5071767;28;20412;-46
2024/01/23 11:17:23;;;;;;;33.83;6.13;;;8.30;1.00;;;;;;5061887;28;20440;-46
2024/01/23 11:20:09;;;;;;;32.73;7.30;;;8.40;1.00;;;;;;5071063;28;20415;-46
2024/01/23 11:22:35;;;;;;;45.50;6.80;;;8.50;1.00;;;;;;5071053;28;20494;-47
2024/01/23 11:25:01;;;;;;;49.73;5.90;;;9.30;1.00;;;;;;5070850;28;20444;-46
2024/01/23 11:27:28;;;;;;;38.10;6.93;;;9.90;1.00;;;;;;5070572;28;20417;-46
2024/01/23 11:29:56;;;;;;;29.80;6.20;;;10.20;1.00;;;;;;5071073;28;20429;-46
2024/01/23 11:32:23;;;;;;;38.63;6.30;;;10.50;1.00;;;;;;5071297;28;20413;-47
2024/01/23 11:35:15;;;;;;;37.80;6.20;;;10.60;1.00;;;;;;5068843;28;20420;-47
2024/01/23 11:37:54;;;;;;;32.33;6.17;;;10.30;1.00;;;;;;5070760;28;20389;-47
2024/01/23 11:40:33;;;;;;;34.17;6.47;;;10.00;1.00;;;;;;5070336;28;20451;-47
2024/01/23 11:43:20;;;;;;;34.83;6.80;;;9.80;1.00;;;;;;5070275;28;20511;-47
2024/01/23 11:45:49;;;;;;;42.33;7.33;;;9.40;1.00;;;;;;5070922;28;20924;-48
2024/01/23 11:48:15;;;;;;;39.20;7.23;;;9.20;1.00;;;;;;5070863;28;20460;-47
2024/01/23 11:50:43;;;;;;;35.07;5.20;;;9.00;1.00;;;;;;5071232;28;20919;-47
2024/01/23 11:53:10;;;;;;;42.10;7.13;;;9.00;1.00;;;;;;5069518;28;20500;-47
2024/01/23 11:55:37;;;;;;;34.83;6.90;;;9.10;1.00;;;;;;5069814;28;20988;-47
2024/01/23 11:58:03;;;;;;;38.83;6.63;;;9.10;1.00;;;;;;5069832;28;20439;-47
2024/01/23 12:00:29;;;;;;;38.87;6.37;;;9.00;1.00;;;;;;5071175;28;20436;-47
2024/01/23 12:02:55;;;;;;;39.77;8.13;;;9.00;1.00;;;;;;5070463;28;21018;-47
2024/01/23 12:05:20;;;;;;;40.50;6.57;;;8.90;1.00;;;;;;5071124;28;20279;-48
2024/01/23 12:07:46;;;;;;;30.27;7.13;;;8.90;1.00;;;;;;5069241;28;20242;-47
2024/01/23 12:10:17;;;;;;;50.13;6.57;;;8.90;1.00;;;;;;5070686;28;20286;-47
2024/01/23 12:12:43;;;;;;;27.70;5.47;;;8.80;1.00;;;;;;5070700;28;20197;-47
2024/01/23 12:15:09;;;;;;;42.60;6.10;;;8.70;1.00;;;;;;5070049;28;20412;-47
2024/01/23 12:17:36;;;;;;;41.57;6.57;;;8.60;1.00;;;;;;5070288;28;20186;-47
2024/01/23 12:20:09;;;;;;;39.87;6.87;;;8.50;1.00;;;;;;5071042;28;20423;-46
2024/01/23 12:22:38;;;;;;;32.60;5.83;;;8.40;1.00;;;;;;5085125;28;20409;-47
2024/01/23 12:25:05;;;;;;;41.23;6.50;;;8.50;1.00;;;;;;5069204;28;20409;-47
2024/01/23 12:27:31;;;;;;;43.20;6.90;;;8.60;1.00;;;;;;5070815;28;20757;-46
2024/01/23 12:30:01;;;;;;;35.97;6.80;;;8.60;1.00;;;;;;5070894;28;20419;-47
2024/01/23 12:32:28;;;;;;;32.67;5.70;;;8.60;1.00;;;;;;5069979;28;20435;-47
2024/01/23 12:34:54;;;;;;;34.97;6.20;;;8.40;1.00;;;;;;5069885;28;20416;-47
2024/01/23 12:37:23;;;;;;;43.63;6.23;;;8.30;1.00;;;;;;5069405;28;20746;-47
2024/01/23 12:39:49;;;;;;;42.43;6.73;;;8.30;1.00;;;;;;5069599;28;20511;-47
2024/01/23 12:42:14;;;;;;;33.63;6.17;;;8.20;1.00;;;;;;5071889;28;20542;-47
2024/01/23 12:44:41;;;;;;;39.03;6.23;;;8.20;1.00;;;;;;5071520;28;20185;-47
2024/01/23 12:47:11;;;;;;;33.43;6.10;;;8.20;1.00;;;;;;5073129;28;20717;-46
2024/01/23 12:49:37;;;;;;;34.07;6.63;;;8.20;1.00;;;;;;5073283;28;21089;-46
2024/01/23 12:52:03;;;;;;;31.90;5.37;;;8.10;1.00;;;;;;5074584;28;20511;-47